sensor_id;sensor_type;location;lat;lon;timestamp;temperature;humidity
23717;DHT22;22094;52.130;5.598;2023-02-13T00:01:55;6.80;99.90
23717;DHT22;22094;52.130;5.598;2023-02-13T00:04:20;6.80;99.90
23717;DHT22;22094;52.130;5.598;2023-02-13T00:06:46;6.90;99.90
23717;DHT22;22094;52.130;5.598;2023-02-13T00:09:14;6.90;99.90
23717;DHT22;22094;52.130;5.598;2023-02-13T00:11:40;6.80;99.90
23717;DHT22;22094;52.130;5.598;2023-02-13T00:14:05;6.80;99.90
23717;DHT22;22094;52.130;5.598;2023-02-13T00:16:32;6.80;99.90
23717;DHT22;22094;52.130;5.598;2023-02-13T00:18:58;6.80;99.90
23717;DHT22;22094;52.130;5.598;2023-02-13T00:21:23;6.80;99.90
23717;DHT22;22094;52.130;5.598;2023-02-13T00:23:49;6.80;99.90
23717;DHT22;22094;52.130;5.598;2023-02-13T00:26:17;6.80;99.90
23717;DHT22;22094;52.130;5.598;2023-02-13T00:28:43;6.80;99.90
23717;DHT22;22094;52.130;5.598;2023-02-13T00:31:12;6.80;99.90
23717;DHT22;22094;52.130;5.598;2023-02-13T00:33:38;6.80;99.90
23717;DHT22;22094;52.130;5.598;2023-02-13T00:36:10;6.90;99.90
23717;DHT22;22094;52.130;5.598;2023-02-13T00:38:37;6.80;99.90
23717;DHT22;22094;52.130;5.598;2023-02-13T00:41:03;6.80;99.90
23717;DHT22;22094;52.130;5.598;2023-02-13T00:43:29;6.80;99.90
23717;DHT22;22094;52.130;5.598;2023-02-13T00:45:55;6.80;99.90
23717;DHT22;22094;52.130;5.598;2023-02-13T00:48:23;6.70;99.90
23717;DHT22;22094;52.130;5.598;2023-02-13T00:50:49;6.70;99.90
23717;DHT22;22094;52.130;5.598;2023-02-13T00:53:16;6.80;99.90
23717;DHT22;22094;52.130;5.598;2023-02-13T00:55:41;6.80;99.90
23717;DHT22;22094;52.130;5.598;2023-02-13T00:58:07;6.70;99.90
23717;DHT22;22094;52.130;5.598;2023-02-13T01:00:32;6.70;99.90
23717;DHT22;22094;52.130;5.598;2023-02-13T01:02:58;6.70;99.90
23717;DHT22;22094;52.130;5.598;2023-02-13T01:05:24;6.70;99.90
23717;DHT22;22094;52.130;5.598;2023-02-13T01:07:49;6.80;99.90
23717;DHT22;22094;52.130;5.598;2023-02-13T01:10:16;6.80;99.90
23717;DHT22;22094;52.130;5.598;2023-02-13T01:12:41;6.70;99.90
23717;DHT22;22094;52.130;5.598;2023-02-13T01:15:07;6.70;99.90
23717;DHT22;22094;52.130;5.598;2023-02-13T01:17:33;6.60;99.90
23717;DHT22;22094;52.130;5.598;2023-02-13T01:19:58;6.60;99.90
23717;DHT22;22094;52.130;5.598;2023-02-13T01:22:24;6.60;99.90
23717;DHT22;22094;52.130;5.598;2023-02-13T01:24:50;6.70;99.90
23717;DHT22;22094;52.130;5.598;2023-02-13T01:27:15;6.60;99.90
23717;DHT22;22094;52.130;5.598;2023-02-13T01:29:41;6.60;99.90
23717;DHT22;22094;52.130;5.598;2023-02-13T01:32:06;6.60;99.90
23717;DHT22;22094;52.130;5.598;2023-02-13T01:34:33;6.60;99.90
23717;DHT22;22094;52.130;5.598;2023-02-13T01:36:59;6.60;99.90
23717;DHT22;22094;52.130;5.598;2023-02-13T01:39:25;6.60;99.90
23717;DHT22;22094;52.130;5.598;2023-02-13T01:41:50;6.60;99.90
23717;DHT22;22094;52.130;5.598;2023-02-13T01:44:51;6.60;99.90
23717;DHT22;22094;52.130;5.598;2023-02-13T01:50:06;6.60;99.90
23717;DHT22;22094;52.130;5.598;2023-02-13T01:52:34;6.60;99.90
23717;DHT22;22094;52.130;5.598;2023-02-13T01:55:01;6.60;99.90
23717;DHT22;22094;52.130;5.598;2023-02-13T01:57:29;6.60;99.90
23717;DHT22;22094;52.130;5.598;2023-02-13T02:00:00;6.60;99.90
23717;DHT22;22094;52.130;5.598;2023-02-13T02:02:30;7.20;99.90
23717;DHT22;22094;52.130;5.598;2023-02-13T02:04:58;6.60;99.90
23717;DHT22;22094;52.130;5.598;2023-02-13T02:07:25;6.60;99.90
23717;DHT22;22094;52.130;5.598;2023-02-13T02:09:55;6.60;99.90
23717;DHT22;22094;52.130;5.598;2023-02-13T02:12:27;6.60;99.90
23717;DHT22;22094;52.130;5.598;2023-02-13T02:14:55;6.60;99.90
23717;DHT22;22094;52.130;5.598;2023-02-13T02:17:23;6.60;99.90
23717;DHT22;22094;52.130;5.598;2023-02-13T02:34:06;6.50;99.90
23717;DHT22;22094;52.130;5.598;2023-02-13T02:37:01;6.50;99.90
23717;DHT22;22094;52.130;5.598;2023-02-13T02:40:01;6.50;99.90
23717;DHT22;22094;52.130;5.598;2023-02-13T02:51:13;6.50;99.90
23717;DHT22;22094;52.130;5.598;2023-02-13T02:56:30;6.60;99.90
23717;DHT22;22094;52.130;5.598;2023-02-13T02:59:09;6.50;99.90
23717;DHT22;22094;52.130;5.598;2023-02-13T03:01:56;6.50;99.90
23717;DHT22;22094;52.130;5.598;2023-02-13T03:05:01;6.50;99.90
23717;DHT22;22094;52.130;5.598;2023-02-13T03:07:46;6.60;99.90
23717;DHT22;22094;52.130;5.598;2023-02-13T03:10:22;6.50;99.90
23717;DHT22;22094;52.130;5.598;2023-02-13T03:13:13;6.50;99.90
23717;DHT22;22094;52.130;5.598;2023-02-13T03:15:47;6.50;99.90
23717;DHT22;22094;52.130;5.598;2023-02-13T03:18:36;6.60;99.90
23717;DHT22;22094;52.130;5.598;2023-02-13T03:21:52;6.60;99.90
23717;DHT22;22094;52.130;5.598;2023-02-13T03:25:04;6.60;99.90
23717;DHT22;22094;52.130;5.598;2023-02-13T03:27:49;6.60;99.90
23717;DHT22;22094;52.130;5.598;2023-02-13T03:31:06;6.60;99.90
23717;DHT22;22094;52.130;5.598;2023-02-13T03:33:59;6.60;99.90
23717;DHT22;22094;52.130;5.598;2023-02-13T03:36:58;6.60;99.90
23717;DHT22;22094;52.130;5.598;2023-02-13T03:39:47;6.50;99.90
23717;DHT22;22094;52.130;5.598;2023-02-13T03:42:39;6.50;99.90
23717;DHT22;22094;52.130;5.598;2023-02-13T03:45:13;6.50;99.90
23717;DHT22;22094;52.130;5.598;2023-02-13T03:48:02;6.60;99.90
23717;DHT22;22094;52.130;5.598;2023-02-13T03:50:36;6.60;99.90
23717;DHT22;22094;52.130;5.598;2023-02-13T03:53:09;6.50;99.90
23717;DHT22;22094;52.130;5.598;2023-02-13T03:55:39;6.50;99.90
23717;DHT22;22094;52.130;5.598;2023-02-13T03:58:34;6.50;99.90
23717;DHT22;22094;52.130;5.598;2023-02-13T04:01:22;6.50;99.90
23717;DHT22;22094;52.130;5.598;2023-02-13T04:03:59;6.60;99.90
23717;DHT22;22094;52.130;5.598;2023-02-13T04:06:31;6.50;99.90
23717;DHT22;22094;52.130;5.598;2023-02-13T04:08:58;6.60;99.90
23717;DHT22;22094;52.130;5.598;2023-02-13T04:12:19;6.50;99.90
23717;DHT22;22094;52.130;5.598;2023-02-13T04:14:49;6.50;99.90
23717;DHT22;22094;52.130;5.598;2023-02-13T04:17:23;6.60;99.90
23717;DHT22;22094;52.130;5.598;2023-02-13T04:19:49;6.90;99.90
23717;DHT22;22094;52.130;5.598;2023-02-13T04:22:15;6.50;99.90
23717;DHT22;22094;52.130;5.598;2023-02-13T04:24:41;7.00;99.90
23717;DHT22;22094;52.130;5.598;2023-02-13T04:27:08;6.50;99.90
23717;DHT22;22094;52.130;5.598;2023-02-13T04:29:34;6.60;99.90
23717;DHT22;22094;52.130;5.598;2023-02-13T04:32:00;6.50;99.90
23717;DHT22;22094;52.130;5.598;2023-02-13T04:34:25;6.60;99.90
23717;DHT22;22094;52.130;5.598;2023-02-13T04:36:51;6.50;99.90
23717;DHT22;22094;52.130;5.598;2023-02-13T04:39:17;6.50;99.90
23717;DHT22;22094;52.130;5.598;2023-02-13T04:41:42;6.60;99.90
23717;DHT22;22094;52.130;5.598;2023-02-13T04:44:08;6.60;99.90
23717;DHT22;22094;52.130;5.598;2023-02-13T04:46:36;6.60;99.90
23717;DHT22;22094;52.130;5.598;2023-02-13T04:49:01;7.20;99.90
23717;DHT22;22094;52.130;5.598;2023-02-13T04:51:27;6.90;99.90
23717;DHT22;22094;52.130;5.598;2023-02-13T04:53:53;6.60;99.90
23717;DHT22;22094;52.130;5.598;2023-02-13T04:56:18;6.60;99.90
23717;DHT22;22094;52.130;5.598;2023-02-13T04:58:44;6.60;99.90
23717;DHT22;22094;52.130;5.598;2023-02-13T05:01:14;6.60;99.90
23717;DHT22;22094;52.130;5.598;2023-02-13T05:03:42;6.60;99.90
23717;DHT22;22094;52.130;5.598;2023-02-13T05:06:07;6.60;99.90
23717;DHT22;22094;52.130;5.598;2023-02-13T05:08:33;6.60;99.90
23717;DHT22;22094;52.130;5.598;2023-02-13T05:10:59;6.60;99.90
23717;DHT22;22094;52.130;5.598;2023-02-13T05:13:25;6.60;99.90
23717;DHT22;22094;52.130;5.598;2023-02-13T05:15:50;6.50;99.90
23717;DHT22;22094;52.130;5.598;2023-02-13T05:18:19;6.50;99.90
23717;DHT22;22094;52.130;5.598;2023-02-13T05:20:44;6.50;99.90
23717;DHT22;22094;52.130;5.598;2023-02-13T05:23:30;6.50;99.90
23717;DHT22;22094;52.130;5.598;2023-02-13T05:25:55;6.50;99.90
23717;DHT22;22094;52.130;5.598;2023-02-13T05:28:21;6.50;99.90
23717;DHT22;22094;52.130;5.598;2023-02-13T05:31:05;6.50;99.90
23717;DHT22;22094;52.130;5.598;2023-02-13T05:33:31;6.50;99.90
23717;DHT22;22094;52.130;5.598;2023-02-13T05:35:56;6.50;99.90
23717;DHT22;22094;52.130;5.598;2023-02-13T05:38:22;6.50;99.90
23717;DHT22;22094;52.130;5.598;2023-02-13T05:40:47;6.50;99.90
23717;DHT22;22094;52.130;5.598;2023-02-13T05:43:13;6.50;99.90
23717;DHT22;22094;52.130;5.598;2023-02-13T05:45:38;6.50;99.90
23717;DHT22;22094;52.130;5.598;2023-02-13T05:48:04;6.50;99.90
23717;DHT22;22094;52.130;5.598;2023-02-13T05:50:30;6.50;99.90
23717;DHT22;22094;52.130;5.598;2023-02-13T05:52:55;6.50;99.90
23717;DHT22;22094;52.130;5.598;2023-02-13T05:55:21;6.40;99.90
23717;DHT22;22094;52.130;5.598;2023-02-13T05:57:46;6.50;99.90
23717;DHT22;22094;52.130;5.598;2023-02-13T06:00:12;6.50;99.90
23717;DHT22;22094;52.130;5.598;2023-02-13T06:02:38;6.50;99.90
23717;DHT22;22094;52.130;5.598;2023-02-13T06:05:04;6.50;99.90
23717;DHT22;22094;52.130;5.598;2023-02-13T06:07:35;6.50;99.90
23717;DHT22;22094;52.130;5.598;2023-02-13T06:10:03;7.40;99.90
23717;DHT22;22094;52.130;5.598;2023-02-13T06:12:29;6.50;99.90
23717;DHT22;22094;52.130;5.598;2023-02-13T06:14:54;6.50;99.90
23717;DHT22;22094;52.130;5.598;2023-02-13T06:17:20;6.40;99.90
23717;DHT22;22094;52.130;5.598;2023-02-13T06:19:45;7.40;99.90
23717;DHT22;22094;52.130;5.598;2023-02-13T06:22:11;6.50;99.90
23717;DHT22;22094;52.130;5.598;2023-02-13T06:24:36;6.50;99.90
23717;DHT22;22094;52.130;5.598;2023-02-13T06:27:02;6.50;99.90
23717;DHT22;22094;52.130;5.598;2023-02-13T06:29:28;6.60;99.90
23717;DHT22;22094;52.130;5.598;2023-02-13T06:31:55;6.50;99.90
23717;DHT22;22094;52.130;5.598;2023-02-13T06:34:21;6.50;99.90
23717;DHT22;22094;52.130;5.598;2023-02-13T06:36:47;6.50;99.90
23717;DHT22;22094;52.130;5.598;2023-02-13T06:39:12;6.50;99.90
23717;DHT22;22094;52.130;5.598;2023-02-13T06:41:38;6.60;99.90
23717;DHT22;22094;52.130;5.598;2023-02-13T06:44:04;6.60;99.90
23717;DHT22;22094;52.130;5.598;2023-02-13T06:46:29;6.60;99.90
23717;DHT22;22094;52.130;5.598;2023-02-13T06:48:55;6.70;99.90
23717;DHT22;22094;52.130;5.598;2023-02-13T06:51:20;6.60;99.90
23717;DHT22;22094;52.130;5.598;2023-02-13T06:53:46;6.60;99.90
23717;DHT22;22094;52.130;5.598;2023-02-13T06:56:11;6.50;99.90
23717;DHT22;22094;52.130;5.598;2023-02-13T06:58:37;6.60;99.90
23717;DHT22;22094;52.130;5.598;2023-02-13T07:01:04;6.60;99.90
23717;DHT22;22094;52.130;5.598;2023-02-13T07:03:30;6.60;99.90
23717;DHT22;22094;52.130;5.598;2023-02-13T07:05:55;6.60;99.90
23717;DHT22;22094;52.130;5.598;2023-02-13T07:08:21;6.60;99.90
23717;DHT22;22094;52.130;5.598;2023-02-13T07:10:47;6.60;99.90
23717;DHT22;22094;52.130;5.598;2023-02-13T07:13:12;7.10;99.90
23717;DHT22;22094;52.130;5.598;2023-02-13T07:15:38;6.60;99.90
23717;DHT22;22094;52.130;5.598;2023-02-13T07:18:04;6.70;99.90
23717;DHT22;22094;52.130;5.598;2023-02-13T07:20:31;6.70;99.90
23717;DHT22;22094;52.130;5.598;2023-02-13T07:22:58;6.70;99.90
23717;DHT22;22094;52.130;5.598;2023-02-13T07:25:24;6.70;99.90
23717;DHT22;22094;52.130;5.598;2023-02-13T07:27:50;6.70;99.90
23717;DHT22;22094;52.130;5.598;2023-02-13T07:30:15;6.70;99.90
23717;DHT22;22094;52.130;5.598;2023-02-13T07:32:41;6.70;99.90
23717;DHT22;22094;52.130;5.598;2023-02-13T07:35:07;6.80;99.90
23717;DHT22;22094;52.130;5.598;2023-02-13T07:37:32;6.80;99.90
23717;DHT22;22094;52.130;5.598;2023-02-13T07:39:58;6.80;99.90
23717;DHT22;22094;52.130;5.598;2023-02-13T07:42:24;6.80;99.90
23717;DHT22;22094;52.130;5.598;2023-02-13T07:44:49;6.90;99.90
23717;DHT22;22094;52.130;5.598;2023-02-13T07:47:15;6.90;99.90
23717;DHT22;22094;52.130;5.598;2023-02-13T07:49:41;7.00;99.90
23717;DHT22;22094;52.130;5.598;2023-02-13T07:52:06;7.20;99.90
23717;DHT22;22094;52.130;5.598;2023-02-13T07:54:32;7.00;99.90
23717;DHT22;22094;52.130;5.598;2023-02-13T07:56:58;7.10;99.90
23717;DHT22;22094;52.130;5.598;2023-02-13T07:59:24;7.20;99.90
23717;DHT22;22094;52.130;5.598;2023-02-13T08:04:15;7.10;99.90
23717;DHT22;22094;52.130;5.598;2023-02-13T08:06:41;7.20;99.90
23717;DHT22;22094;52.130;5.598;2023-02-13T08:09:16;7.40;99.90
23717;DHT22;22094;52.130;5.598;2023-02-13T08:12:01;7.40;99.90
23717;DHT22;22094;52.130;5.598;2023-02-13T08:16:54;7.50;99.90
23717;DHT22;22094;52.130;5.598;2023-02-13T08:19:20;5.20;99.90
23717;DHT22;22094;52.130;5.598;2023-02-13T08:21:46;7.60;99.90
23717;DHT22;22094;52.130;5.598;2023-02-13T08:24:12;9.90;99.90
23717;DHT22;22094;52.130;5.598;2023-02-13T08:26:38;5.60;99.90
23717;DHT22;22094;52.130;5.598;2023-02-13T08:29:05;7.70;99.90
23717;DHT22;22094;52.130;5.598;2023-02-13T08:31:30;10.10;99.90
23717;DHT22;22094;52.130;5.598;2023-02-13T08:33:56;7.80;99.90
23717;DHT22;22094;52.130;5.598;2023-02-13T08:36:23;5.90;99.90
23717;DHT22;22094;52.130;5.598;2023-02-13T08:41:14;8.20;99.90
23717;DHT22;22094;52.130;5.598;2023-02-13T08:46:08;5.70;99.90
23717;DHT22;22094;52.130;5.598;2023-02-13T08:48:34;8.50;99.90
23717;DHT22;22094;52.130;5.598;2023-02-13T08:51:03;8.40;99.90
23717;DHT22;22094;52.130;5.598;2023-02-13T08:53:29;7.30;99.90
23717;DHT22;22094;52.130;5.598;2023-02-13T08:55:56;10.00;99.90
23717;DHT22;22094;52.130;5.598;2023-02-13T08:58:22;9.00;99.90
23717;DHT22;22094;52.130;5.598;2023-02-13T09:00:48;9.10;99.90
23717;DHT22;22094;52.130;5.598;2023-02-13T09:05:40;11.60;99.90
23717;DHT22;22094;52.130;5.598;2023-02-13T09:08:06;9.10;99.90
23717;DHT22;22094;52.130;5.598;2023-02-13T09:10:33;9.40;99.90
23717;DHT22;22094;52.130;5.598;2023-02-13T09:12:59;9.10;99.90
23717;DHT22;22094;52.130;5.598;2023-02-13T09:15:25;12.20;99.90
23717;DHT22;22094;52.130;5.598;2023-02-13T09:17:51;12.10;99.90
23717;DHT22;22094;52.130;5.598;2023-02-13T09:20:17;9.90;99.90
23717;DHT22;22094;52.130;5.598;2023-02-13T09:22:43;9.70;99.90
23717;DHT22;22094;52.130;5.598;2023-02-13T09:25:08;11.80;99.90
23717;DHT22;22094;52.130;5.598;2023-02-13T09:27:34;9.60;99.90
23717;DHT22;22094;52.130;5.598;2023-02-13T09:30:02;9.90;99.90
23717;DHT22;22094;52.130;5.598;2023-02-13T09:37:19;12.60;99.90
23717;DHT22;22094;52.130;5.598;2023-02-13T09:39:47;13.30;99.90
23717;DHT22;22094;52.130;5.598;2023-02-13T09:42:21;8.00;99.90
23717;DHT22;22094;52.130;5.598;2023-02-13T09:44:54;11.80;99.90
23717;DHT22;22094;52.130;5.598;2023-02-13T09:47:35;13.10;99.90
23717;DHT22;22094;52.130;5.598;2023-02-13T09:50:27;8.40;99.90
23717;DHT22;22094;52.130;5.598;2023-02-13T09:52:54;10.90;99.90
23717;DHT22;22094;52.130;5.598;2023-02-13T09:55:54;10.50;99.90
23717;DHT22;22094;52.130;5.598;2023-02-13T10:00:58;10.70;99.90
23717;DHT22;22094;52.130;5.598;2023-02-13T10:03:36;10.90;99.90
23717;DHT22;22094;52.130;5.598;2023-02-13T10:06:31;10.80;99.90
23717;DHT22;22094;52.130;5.598;2023-02-13T10:09:11;10.90;99.90
23717;DHT22;22094;52.130;5.598;2023-02-13T10:14:18;11.00;99.90
23717;DHT22;22094;52.130;5.598;2023-02-13T10:16:58;10.90;99.90
23717;DHT22;22094;52.130;5.598;2023-02-13T10:19:42;11.10;99.90
23717;DHT22;22094;52.130;5.598;2023-02-13T10:25:02;11.80;99.90
23717;DHT22;22094;52.130;5.598;2023-02-13T10:27:40;9.40;99.90
23717;DHT22;22094;52.130;5.598;2023-02-13T10:30:17;11.80;99.90
23717;DHT22;22094;52.130;5.598;2023-02-13T10:35:47;12.10;99.90
23717;DHT22;22094;52.130;5.598;2023-02-13T10:38:20;12.20;99.90
23717;DHT22;22094;52.130;5.598;2023-02-13T10:43:51;12.00;99.90
23717;DHT22;22094;52.130;5.598;2023-02-13T10:49:17;12.60;99.90
23717;DHT22;22094;52.130;5.598;2023-02-13T11:05:00;12.60;99.90
23717;DHT22;22094;52.130;5.598;2023-02-13T11:07:27;12.50;99.90
23717;DHT22;22094;52.130;5.598;2023-02-13T11:09:59;11.80;99.90
23717;DHT22;22094;52.130;5.598;2023-02-13T11:12:32;12.30;99.90
23717;DHT22;22094;52.130;5.598;2023-02-13T11:15:00;11.00;99.90
23717;DHT22;22094;52.130;5.598;2023-02-13T11:17:32;12.10;99.90
23717;DHT22;22094;52.130;5.598;2023-02-13T11:20:02;12.60;99.90
23717;DHT22;22094;52.130;5.598;2023-02-13T11:22:32;12.70;99.90
23717;DHT22;22094;52.130;5.598;2023-02-13T11:25:16;12.50;99.90
23717;DHT22;22094;52.130;5.598;2023-02-13T11:30:31;12.60;99.90
23717;DHT22;22094;52.130;5.598;2023-02-13T11:32:59;12.80;99.90
23717;DHT22;22094;52.130;5.598;2023-02-13T11:35:30;12.70;99.90
23717;DHT22;22094;52.130;5.598;2023-02-13T11:40:45;12.50;99.90
23717;DHT22;22094;52.130;5.598;2023-02-13T11:43:27;12.40;99.90
23717;DHT22;22094;52.130;5.598;2023-02-13T11:46:07;12.50;99.90
23717;DHT22;22094;52.130;5.598;2023-02-13T11:53:31;12.40;99.90
23717;DHT22;22094;52.130;5.598;2023-02-13T12:08:25;11.50;99.90
23717;DHT22;22094;52.130;5.598;2023-02-13T12:10:52;13.10;99.90
23717;DHT22;22094;52.130;5.598;2023-02-13T12:13:37;12.60;99.90
23717;DHT22;22094;52.130;5.598;2023-02-13T12:16:23;12.70;99.90
23717;DHT22;22094;52.130;5.598;2023-02-13T12:18:54;12.60;99.90
23717;DHT22;22094;52.130;5.598;2023-02-13T12:21:54;12.50;99.90
23717;DHT22;22094;52.130;5.598;2023-02-13T12:36:25;12.90;99.90
23717;DHT22;22094;52.130;5.598;2023-02-13T12:45:24;13.00;99.90
23717;DHT22;22094;52.130;5.598;2023-02-13T12:47:59;13.10;99.90
23717;DHT22;22094;52.130;5.598;2023-02-13T12:50:31;13.10;99.90
23717;DHT22;22094;52.130;5.598;2023-02-13T12:56:08;13.20;99.90
23717;DHT22;22094;52.130;5.598;2023-02-13T12:58:59;13.30;99.90
23717;DHT22;22094;52.130;5.598;2023-02-13T13:10:11;12.90;99.90
23717;DHT22;22094;52.130;5.598;2023-02-13T13:12:51;13.70;99.90
23717;DHT22;22094;52.130;5.598;2023-02-13T13:16:02;13.30;99.90
23717;DHT22;22094;52.130;5.598;2023-02-13T13:23:45;15.40;99.90
23717;DHT22;22094;52.130;5.598;2023-02-13T13:26:29;13.50;99.90
23717;DHT22;22094;52.130;5.598;2023-02-13T13:29:00;13.40;99.90
23717;DHT22;22094;52.130;5.598;2023-02-13T13:33:59;13.40;99.90
23717;DHT22;22094;52.130;5.598;2023-02-13T13:36:43;13.70;99.90
23717;DHT22;22094;52.130;5.598;2023-02-13T13:50:11;13.20;99.90
23717;DHT22;22094;52.130;5.598;2023-02-13T13:53:05;13.30;99.90
23717;DHT22;22094;52.130;5.598;2023-02-13T13:58:25;13.20;99.90
23717;DHT22;22094;52.130;5.598;2023-02-13T14:01:25;13.20;99.90
23717;DHT22;22094;52.130;5.598;2023-02-13T14:04:02;14.80;99.90
23717;DHT22;22094;52.130;5.598;2023-02-13T14:11:56;13.30;99.90
23717;DHT22;22094;52.130;5.598;2023-02-13T14:14:43;13.40;99.90
23717;DHT22;22094;52.130;5.598;2023-02-13T14:17:12;13.40;99.90
23717;DHT22;22094;52.130;5.598;2023-02-13T14:19:39;14.80;99.90
23717;DHT22;22094;52.130;5.598;2023-02-13T14:25:00;13.50;99.90
23717;DHT22;22094;52.130;5.598;2023-02-13T14:27:37;14.40;99.90
23717;DHT22;22094;52.130;5.598;2023-02-13T14:32:50;13.50;99.90
23717;DHT22;22094;52.130;5.598;2023-02-13T14:35:22;13.90;99.90
23717;DHT22;22094;52.130;5.598;2023-02-13T14:37:51;13.50;99.90
23717;DHT22;22094;52.130;5.598;2023-02-13T14:42:46;13.00;99.90
23717;DHT22;22094;52.130;5.598;2023-02-13T14:45:21;13.30;99.90
23717;DHT22;22094;52.130;5.598;2023-02-13T14:47:54;13.50;99.90
23717;DHT22;22094;52.130;5.598;2023-02-13T14:50:28;13.40;99.90
23717;DHT22;22094;52.130;5.598;2023-02-13T14:52:56;13.50;99.90
23717;DHT22;22094;52.130;5.598;2023-02-13T14:55:36;13.20;99.90
23717;DHT22;22094;52.130;5.598;2023-02-13T14:58:18;15.50;99.90
23717;DHT22;22094;52.130;5.598;2023-02-13T15:01:05;14.10;99.90
23717;DHT22;22094;52.130;5.598;2023-02-13T15:06:04;13.40;99.90
23717;DHT22;22094;52.130;5.598;2023-02-13T15:08:35;13.40;99.90
23717;DHT22;22094;52.130;5.598;2023-02-13T15:11:02;13.40;99.90
23717;DHT22;22094;52.130;5.598;2023-02-13T15:13:33;14.00;99.90
23717;DHT22;22094;52.130;5.598;2023-02-13T15:16:06;13.90;99.90
23717;DHT22;22094;52.130;5.598;2023-02-13T15:18:39;14.10;99.90
23717;DHT22;22094;52.130;5.598;2023-02-13T15:23:32;14.60;99.90
23717;DHT22;22094;52.130;5.598;2023-02-13T15:26:04;12.70;99.90
23717;DHT22;22094;52.130;5.598;2023-02-13T15:28:30;15.50;99.90
23717;DHT22;22094;52.130;5.598;2023-02-13T15:31:19;15.80;99.90
23717;DHT22;22094;52.130;5.598;2023-02-13T15:33:47;16.20;99.90
23717;DHT22;22094;52.130;5.598;2023-02-13T15:36:18;16.10;99.90
23717;DHT22;22094;52.130;5.598;2023-02-13T15:38:44;17.60;99.90
23717;DHT22;22094;52.130;5.598;2023-02-13T15:41:13;16.40;99.90
23717;DHT22;22094;52.130;5.598;2023-02-13T15:43:43;16.30;99.90
23717;DHT22;22094;52.130;5.598;2023-02-13T15:48:42;17.60;99.90
23717;DHT22;22094;52.130;5.598;2023-02-13T15:53:34;16.60;99.90
23717;DHT22;22094;52.130;5.598;2023-02-13T15:56:02;16.60;99.90
23717;DHT22;22094;52.130;5.598;2023-02-13T15:58:31;17.40;99.90
23717;DHT22;22094;52.130;5.598;2023-02-13T16:01:02;16.10;99.90
23717;DHT22;22094;52.130;5.598;2023-02-13T16:03:30;16.00;99.90
23717;DHT22;22094;52.130;5.598;2023-02-13T16:05:57;15.90;99.90
23717;DHT22;22094;52.130;5.598;2023-02-13T16:08:34;15.70;99.90
23717;DHT22;22094;52.130;5.598;2023-02-13T16:11:23;14.70;99.90
23717;DHT22;22094;52.130;5.598;2023-02-13T16:16:21;13.10;99.90
23717;DHT22;22094;52.130;5.598;2023-02-13T16:18:48;13.00;99.90
23717;DHT22;22094;52.130;5.598;2023-02-13T16:21:14;12.50;99.90
23717;DHT22;22094;52.130;5.598;2023-02-13T16:23:43;12.10;99.90
23717;DHT22;22094;52.130;5.598;2023-02-13T16:26:12;11.80;99.90
23717;DHT22;22094;52.130;5.598;2023-02-13T16:28:39;11.50;99.90
23717;DHT22;22094;52.130;5.598;2023-02-13T16:31:05;11.20;99.90
23717;DHT22;22094;52.130;5.598;2023-02-13T16:33:36;10.90;99.90
23717;DHT22;22094;52.130;5.598;2023-02-13T16:38:42;10.70;99.90
23717;DHT22;22094;52.130;5.598;2023-02-13T16:46:38;10.20;99.90
23717;DHT22;22094;52.130;5.598;2023-02-13T16:51:49;9.70;99.90
23717;DHT22;22094;52.130;5.598;2023-02-13T16:54:22;9.70;99.90
23717;DHT22;22094;52.130;5.598;2023-02-13T16:56:53;9.50;99.90
23717;DHT22;22094;52.130;5.598;2023-02-13T17:01:45;9.20;99.90
23717;DHT22;22094;52.130;5.598;2023-02-13T17:04:29;9.20;99.90
23717;DHT22;22094;52.130;5.598;2023-02-13T17:06:55;9.00;99.90
23717;DHT22;22094;52.130;5.598;2023-02-13T17:09:21;9.00;99.90
23717;DHT22;22094;52.130;5.598;2023-02-13T17:11:51;8.70;99.90
23717;DHT22;22094;52.130;5.598;2023-02-13T17:14:17;8.60;99.90
23717;DHT22;22094;52.130;5.598;2023-02-13T17:16:43;8.60;99.90
23717;DHT22;22094;52.130;5.598;2023-02-13T17:19:09;8.50;99.90
23717;DHT22;22094;52.130;5.598;2023-02-13T17:21:35;8.40;99.90
23717;DHT22;22094;52.130;5.598;2023-02-13T17:24:01;8.30;99.90
23717;DHT22;22094;52.130;5.598;2023-02-13T17:26:27;8.20;99.90
23717;DHT22;22094;52.130;5.598;2023-02-13T17:28:52;8.20;99.90
23717;DHT22;22094;52.130;5.598;2023-02-13T17:31:18;8.10;99.90
23717;DHT22;22094;52.130;5.598;2023-02-13T17:33:43;8.00;99.90
23717;DHT22;22094;52.130;5.598;2023-02-13T17:36:11;7.90;99.90
23717;DHT22;22094;52.130;5.598;2023-02-13T17:38:37;8.10;99.90
23717;DHT22;22094;52.130;5.598;2023-02-13T17:41:05;7.80;99.90
23717;DHT22;22094;52.130;5.598;2023-02-13T17:43:30;7.70;99.90
23717;DHT22;22094;52.130;5.598;2023-02-13T17:45:56;7.70;99.90
23717;DHT22;22094;52.130;5.598;2023-02-13T17:48:22;7.60;99.90
23717;DHT22;22094;52.130;5.598;2023-02-13T17:50:49;7.50;99.90
23717;DHT22;22094;52.130;5.598;2023-02-13T17:53:22;7.40;99.90
23717;DHT22;22094;52.130;5.598;2023-02-13T17:55:49;7.40;99.90
23717;DHT22;22094;52.130;5.598;2023-02-13T17:58:14;7.30;99.90
23717;DHT22;22094;52.130;5.598;2023-02-13T18:00:40;7.20;99.90
23717;DHT22;22094;52.130;5.598;2023-02-13T18:03:05;7.20;99.90
23717;DHT22;22094;52.130;5.598;2023-02-13T18:05:31;7.10;99.90
23717;DHT22;22094;52.130;5.598;2023-02-13T18:07:58;7.10;99.90
23717;DHT22;22094;52.130;5.598;2023-02-13T18:10:26;7.10;99.90
23717;DHT22;22094;52.130;5.598;2023-02-13T18:12:53;7.00;99.90
23717;DHT22;22094;52.130;5.598;2023-02-13T18:15:20;6.90;99.90
23717;DHT22;22094;52.130;5.598;2023-02-13T18:17:45;6.90;99.90
23717;DHT22;22094;52.130;5.598;2023-02-13T18:20:13;6.90;99.90
23717;DHT22;22094;52.130;5.598;2023-02-13T18:22:40;6.90;99.90
23717;DHT22;22094;52.130;5.598;2023-02-13T18:25:06;6.80;99.90
23717;DHT22;22094;52.130;5.598;2023-02-13T18:27:31;6.70;99.90
23717;DHT22;22094;52.130;5.598;2023-02-13T18:29:57;6.60;99.90
23717;DHT22;22094;52.130;5.598;2023-02-13T18:32:23;6.60;99.90
23717;DHT22;22094;52.130;5.598;2023-02-13T18:34:48;6.50;99.90
23717;DHT22;22094;52.130;5.598;2023-02-13T18:37:15;6.50;99.90
23717;DHT22;22094;52.130;5.598;2023-02-13T18:39:40;6.40;99.90
23717;DHT22;22094;52.130;5.598;2023-02-13T18:42:06;6.50;99.90
23717;DHT22;22094;52.130;5.598;2023-02-13T18:44:32;6.50;99.90
23717;DHT22;22094;52.130;5.598;2023-02-13T18:46:58;6.60;99.90
23717;DHT22;22094;52.130;5.598;2023-02-13T18:49:24;6.40;99.90
23717;DHT22;22094;52.130;5.598;2023-02-13T18:51:49;6.90;99.90
23717;DHT22;22094;52.130;5.598;2023-02-13T18:54:15;6.50;99.90
23717;DHT22;22094;52.130;5.598;2023-02-13T18:56:42;6.50;99.90
23717;DHT22;22094;52.130;5.598;2023-02-13T18:59:08;6.50;99.90
23717;DHT22;22094;52.130;5.598;2023-02-13T19:01:34;6.40;99.90
23717;DHT22;22094;52.130;5.598;2023-02-13T19:04:01;6.40;99.90
23717;DHT22;22094;52.130;5.598;2023-02-13T19:06:27;6.30;99.90
23717;DHT22;22094;52.130;5.598;2023-02-13T19:08:54;6.20;99.90
23717;DHT22;22094;52.130;5.598;2023-02-13T19:11:21;6.20;99.90
23717;DHT22;22094;52.130;5.598;2023-02-13T19:13:55;6.40;99.90